Time;durP1;ratioP1;P1;durP2;ratioP2;P2;SDS_P1;SDS_P2;PMS_P1;PMS_P2;Temp;Humidity;BMP_temperature;BMP_pressure;BME280_temperature;BME280_humidity;BME280_pressure;Samples;Min_cycle;Max_cycle;Signal;HPM_P1;HPM_P2
2023/04/23 00:02:02;;;;;;;8.60;4.43;;;;;;;11.91;100.00;98128.97;5031231;28;20309;-62
2023/04/23 00:04:35;;;;;;;8.67;4.10;;;;;;;11.84;100.00;98141.09;5029454;28;20215;-62
2023/04/23 00:07:04;;;;;;;10.73;4.40;;;;;;;11.82;100.00;98125.59;5033157;28;20229;-62
2023/04/23 00:09:31;;;;;;;8.17;4.40;;;;;;;11.86;100.00;98125.25;5026551;28;21074;-62
2023/04/23 00:11:59;;;;;;;7.17;4.90;;;;;;;11.82;100.00;98135.22;5034673;28;20243;-63
2023/04/23 00:14:28;;;;;;;8.70;5.20;;;;;;;11.80;100.00;98131.97;5030470;28;20318;-63
2023/04/23 00:16:55;;;;;;;6.80;4.37;;;;;;;11.79;100.00;98136.41;5032462;28;20694;-63
2023/04/23 00:19:22;;;;;;;7.93;4.80;;;;;;;11.77;100.00;98138.38;5028565;28;20238;-63
2023/04/23 00:21:48;;;;;;;7.50;4.00;;;;;;;11.77;100.00;98130.53;5028763;28;20635;-63
2023/04/23 00:24:20;;;;;;;7.23;3.90;;;;;;;11.76;100.00;98128.91;5012898;28;20553;-63
2023/04/23 00:26:47;;;;;;;7.67;3.90;;;;;;;11.74;100.00;98130.88;5034030;28;20238;-63
2023/04/23 00:29:18;;;;;;;6.07;3.70;;;;;;;11.73;100.00;98129.25;5030357;28;20231;-63
2023/04/23 00:31:47;;;;;;;7.53;3.73;;;;;;;11.72;100.00;98137.25;5029515;28;20236;-62
2023/04/23 00:34:19;;;;;;;9.00;3.80;;;;;;;11.73;100.00;98131.03;5013259;28;20213;-62
2023/04/23 00:36:45;;;;;;;7.53;2.87;;;;;;;11.70;100.00;98141.81;5039279;28;20346;-62
2023/04/23 00:39:37;;;;;;;5.17;2.60;;;;;;;11.76;100.00;98133.31;5036747;28;20241;-62
2023/04/23 00:42:10;;;;;;;4.07;3.17;;;;;;;11.74;100.00;98153.56;5040839;28;20762;-62
2023/04/23 00:44:37;;;;;;;4.20;2.47;;;;;;;11.74;100.00;98148.34;5017222;28;20717;-62
2023/04/23 00:47:06;;;;;;;3.80;2.73;;;;;;;11.74;100.00;98145.72;5042524;28;20231;-62
2023/04/23 00:49:33;;;;;;;5.13;2.50;;;;;;;11.73;100.00;98147.53;5038597;28;20231;-62
2023/04/23 00:52:00;;;;;;;2.97;2.60;;;;;;;11.80;100.00;98134.59;5024125;28;20551;-62
2023/04/23 00:54:26;;;;;;;3.47;2.30;;;;;;;11.73;100.00;98146.72;5038482;28;20577;-62
2023/04/23 00:56:53;;;;;;;4.33;2.37;;;;;;;11.70;100.00;98141.81;5020452;28;20817;-62
2023/04/23 00:59:20;;;;;;;6.47;2.80;;;;;;;11.73;100.00;98141.47;5039391;28;20226;-61
2023/04/23 01:01:47;;;;;;;3.20;2.40;;;;;;;11.67;100.00;98150.84;5022120;28;20232;-62
2023/04/23 01:04:22;;;;;;;7.30;3.10;;;;;;;11.71;100.00;98149.50;5032850;28;20243;-62
2023/04/23 01:06:49;;;;;;;6.30;2.43;;;;;;;11.66;100.00;98150.00;5041323;28;20243;-62
2023/04/23 01:09:19;;;;;;;3.83;2.63;;;;;;;11.65;100.00;98131.88;5040032;28;20234;-62
2023/04/23 01:11:47;;;;;;;5.87;3.30;;;;;;;11.64;100.00;98144.16;5023798;28;20257;-62
2023/04/23 01:14:19;;;;;;;4.17;2.60;;;;;;;11.59;100.00;98153.47;5040679;28;20233;-62
2023/04/23 01:16:45;;;;;;;5.53;2.70;;;;;;;11.56;100.00;98149.41;5028586;28;20288;-62
2023/04/23 01:19:20;;;;;;;4.53;2.90;;;;;;;11.54;100.00;98140.94;5036962;28;20234;-62
2023/04/23 01:21:49;;;;;;;4.30;2.57;;;;;;;11.54;100.00;98137.47;5045200;28;20612;-62
2023/04/23 01:24:20;;;;;;;6.33;2.40;;;;;;;11.55;100.00;98133.88;5035880;28;20221;-62
2023/04/23 01:26:47;;;;;;;3.00;2.70;;;;;;;11.54;100.00;98142.72;5046450;28;20284;-62
2023/04/23 01:29:20;;;;;;;5.10;2.40;;;;;;;11.49;100.00;98138.81;5043462;28;20242;-62
2023/04/23 01:31:47;;;;;;;5.97;2.43;;;;;;;11.49;100.00;98143.22;5027893;28;20234;-62
2023/04/23 01:34:21;;;;;;;3.53;2.17;;;;;;;11.48;100.00;98149.44;5043695;28;20415;-62
2023/04/23 01:36:48;;;;;;;2.93;2.13;;;;;;;11.45;100.00;98147.16;5025977;28;20234;-62
2023/04/23 01:39:20;;;;;;;3.37;1.97;;;;;;;11.50;100.00;98147.47;5041995;28;20219;-62
2023/04/23 01:41:48;;;;;;;2.30;1.73;;;;;;;11.46;100.00;98143.56;5026012;28;20732;-62
2023/04/23 01:44:19;;;;;;;5.30;1.60;;;;;;;11.41;100.00;98149.28;5033081;28;20346;-62
2023/04/23 01:46:46;;;;;;;2.57;1.53;;;;;;;11.39;100.00;98150.44;5046464;28;20234;-62
2023/04/23 01:49:18;;;;;;;1.37;1.23;;;;;;;11.40;100.00;98149.47;5044291;28;20222;-62
2023/04/23 01:51:45;;;;;;;3.47;1.50;;;;;;;11.37;100.00;98148.81;5028391;28;20225;-62
2023/04/23 01:54:38;;;;;;;4.53;1.33;;;;;;;11.32;100.00;98142.44;5043670;28;20246;-62
2023/04/23 01:57:05;;;;;;;1.90;1.60;;;;;;;11.31;100.00;98154.72;5028093;28;20234;-62
2023/04/23 01:59:32;;;;;;;3.90;1.67;;;;;;;11.28;100.00;98144.59;5024924;28;20222;-63
2023/04/23 02:01:59;;;;;;;3.47;1.60;;;;;;;11.30;100.00;98133.97;5033833;28;20691;-62
2023/04/23 02:04:25;;;;;;;2.50;1.10;;;;;;;11.29;100.00;98137.56;5026016;28;20334;-62
2023/04/23 02:06:55;;;;;;;1.67;1.40;;;;;;;11.27;100.00;98139.53;5046163;28;20241;-62
2023/04/23 02:09:22;;;;;;;1.73;1.37;;;;;;;11.25;100.00;98134.47;5025510;28;20226;-62
2023/04/23 02:11:50;;;;;;;1.83;1.20;;;;;;;11.25;100.00;98128.41;5028929;28;20767;-63
2023/04/23 02:14:19;;;;;;;2.67;1.33;;;;;;;11.27;100.00;98134.28;5025590;28;20214;-63
2023/04/23 02:16:47;;;;;;;1.30;1.07;;;;;;;11.25;100.00;98136.25;5027470;28;20225;-63
2023/04/23 02:19:19;;;;;;;2.27;1.00;;;;;;;11.23;100.00;98131.22;5042773;28;20218;-63
2023/04/23 02:21:45;;;;;;;1.40;1.10;;;;;;;11.23;100.00;98131.22;5028022;28;20284;-63
2023/04/23 02:24:19;;;;;;;2.33;1.13;;;;;;;11.26;100.00;98132.66;5025009;28;20223;-63
2023/04/23 02:26:46;;;;;;;2.37;1.00;;;;;;;11.27;100.00;98131.69;5027479;28;20233;-63
2023/04/23 02:29:21;;;;;;;3.70;1.00;;;;;;;11.28;100.00;98131.53;5043857;28;20276;-63
2023/04/23 02:31:48;;;;;;;2.23;1.33;;;;;;;11.32;100.00;98130.22;5028298;28;20313;-63
2023/04/23 02:34:19;;;;;;;2.67;1.10;;;;;;;11.33;100.00;98123.19;5033888;28;20247;-63
2023/04/23 02:36:45;;;;;;;2.20;0.90;;;;;;;11.36;100.00;98131.50;5046215;28;20226;-63
2023/04/23 02:39:37;;;;;;;1.43;0.90;;;;;;;11.41;100.00;98128.38;5043384;28;20236;-63
2023/04/23 02:42:04;;;;;;;2.53;1.23;;;;;;;11.34;100.00;98120.41;5044138;28;20594;-63
2023/04/23 02:44:32;;;;;;;2.57;1.50;;;;;;;11.36;100.00;98118.44;5042630;28;20230;-63
2023/04/23 02:46:59;;;;;;;3.00;1.40;;;;;;;11.34;100.00;98115.19;5026794;28;20285;-63
2023/04/23 02:49:26;;;;;;;3.13;1.57;;;;;;;11.34;100.00;98123.03;5042993;28;20223;-63
2023/04/23 02:51:52;;;;;;;2.93;1.60;;;;;;;11.37;100.00;98122.69;5044765;28;20233;-63
2023/04/23 02:54:19;;;;;;;1.53;1.17;;;;;;;11.40;100.00;98115.50;5024876;28;20283;-63
2023/04/23 02:56:46;;;;;;;2.53;1.20;;;;;;;11.39;100.00;98127.72;5027688;28;20230;-63
2023/04/23 02:59:19;;;;;;;2.47;1.30;;;;;;;11.40;100.00;98131.19;5040785;28;20215;-63
2023/04/23 03:01:47;;;;;;;1.30;1.13;;;;;;;11.40;100.00;98126.75;5026802;28;20704;-63
2023/04/23 03:04:19;;;;;;;1.97;1.23;;;;;;;11.40;100.00;98123.34;5041347;28;20267;-63
2023/04/23 03:06:46;;;;;;;1.20;1.10;;;;;;;11.46;100.00;98112.22;5044514;28;20232;-63
2023/04/23 03:09:19;;;;;;;2.07;1.20;;;;;;;11.44;100.00;98122.81;5042902;28;20228;-63
2023/04/23 03:11:47;;;;;;;1.70;1.03;;;;;;;11.42;100.00;98119.56;5044547;28;20232;-63
2023/04/23 03:14:19;;;;;;;1.23;1.13;;;;;;;11.45;100.00;98134.91;5032650;28;20260;-63
2023/04/23 03:16:46;;;;;;;2.03;0.93;;;;;;;11.43;100.00;98131.63;5034330;28;20229;-63
2023/04/23 03:19:19;;;;;;;2.23;0.90;;;;;;;11.41;100.00;98127.56;5024057;28;20222;-63
2023/04/23 03:21:46;;;;;;;1.73;0.93;;;;;;;11.39;100.00;98132.16;5033969;28;20235;-63
2023/04/23 03:24:19;;;;;;;1.57;1.00;;;;;;;11.35;100.00;98129.88;5024566;28;20573;-63
2023/04/23 03:26:46;;;;;;;1.00;0.80;;;;;;;11.34;100.00;98132.66;5033924;28;20609;-63
2023/04/23 03:29:19;;;;;;;0.77;0.73;;;;;;;11.36;100.00;98147.19;5024870;28;20222;-63
2023/04/23 03:31:47;;;;;;;1.40;0.83;;;;;;;11.35;100.00;98129.88;5281491;22;20710;-63
2023/04/23 03:34:19;;;;;;;1.43;0.73;;;;;;;11.35;100.00;98136.88;5046567;28;20211;-63
2023/04/23 03:36:47;;;;;;;2.53;0.70;;;;;;;11.34;100.00;98133.47;5053884;28;20233;-63
2023/04/23 03:39:19;;;;;;;1.50;0.97;;;;;;;11.36;100.00;98136.72;5049115;28;20909;-63
2023/04/23 03:41:52;;;;;;;1.17;0.70;;;;;;;11.37;100.00;98129.69;5050082;28;20330;-63
2023/04/23 03:44:23;;;;;;;1.93;0.80;;;;;;;11.35;100.00;98131.66;5050238;28;20291;-62
2023/04/23 03:46:52;;;;;;;1.20;0.90;;;;;;;11.37;100.00;98130.53;5058507;28;20222;-62
2023/04/23 03:49:20;;;;;;;1.00;0.80;;;;;;;11.37;100.00;98135.75;5062469;28;20222;-62
2023/04/23 03:51:46;;;;;;;1.53;0.80;;;;;;;11.35;100.00;98135.09;5054789;28;20247;-62
2023/04/23 03:54:19;;;;;;;2.07;0.80;;;;;;;11.35;100.00;98139.50;5065090;28;20239;-62
2023/04/23 03:57:18;;;;;;;1.33;0.90;;;;;;;11.35;100.00;98145.56;5037922;28;20250;-62
2023/04/23 04:00:01;;;;;;;0.90;0.70;;;;;;;11.37;100.00;98143.59;5061687;28;20691;-62
2023/04/23 04:02:30;;;;;;;2.30;1.10;;;;;;;11.34;100.00;98140.47;5050991;28;20260;-62
2023/04/23 04:04:57;;;;;;;0.90;0.80;;;;;;;11.36;100.00;98134.13;5049665;28;20222;-62
2023/04/23 04:07:24;;;;;;;2.67;1.20;;;;;;;11.33;100.00;98137.06;5052472;28;20219;-62
2023/04/23 04:09:51;;;;;;;1.33;0.90;;;;;;;11.33;100.00;98138.84;5055560;28;20288;-62
2023/04/23 04:12:17;;;;;;;1.83;1.03;;;;;;;11.30;100.00;98134.78;5058726;28;20275;-62
2023/04/23 04:14:44;;;;;;;3.57;0.90;;;;;;;11.32;100.00;98132.81;5053458;28;20244;-62
2023/04/23 04:17:11;;;;;;;1.93;0.73;;;;;;;11.35;100.00;98132.50;5039885;28;20226;-62
2023/04/23 04:19:39;;;;;;;1.73;0.90;;;;;;;11.32;100.00;98125.00;5054042;28;20241;-62
2023/04/23 04:22:05;;;;;;;1.13;1.03;;;;;;;11.30;100.00;98132.19;5054205;28;20230;-62
2023/04/23 04:24:32;;;;;;;1.37;0.90;;;;;;;11.28;100.00;98128.91;5048892;28;20842;-62
2023/04/23 04:27:00;;;;;;;1.67;0.93;;;;;;;11.29;100.00;98125.31;5054242;28;20233;-62
2023/04/23 04:29:27;;;;;;;1.63;1.03;;;;;;;11.29;100.00;98127.09;5050853;28;20222;-62
2023/04/23 04:31:53;;;;;;;1.67;1.13;;;;;;;11.28;100.00;98125.47;5053729;28;20320;-62
2023/04/23 04:34:20;;;;;;;0.97;0.80;;;;;;;11.23;100.00;98126.78;5051180;28;20284;-62
2023/04/23 04:36:48;;;;;;;1.40;0.97;;;;;;;11.27;100.00;98131.69;5052834;28;20239;-62
2023/04/23 04:39:19;;;;;;;1.20;1.00;;;;;;;11.28;100.00;98130.69;5052418;28;20219;-63
2023/04/23 04:41:46;;;;;;;2.83;1.20;;;;;;;11.27;100.00;98127.28;5051698;28;20238;-63
2023/04/23 04:44:19;;;;;;;2.23;1.40;;;;;;;11.25;100.00;98124.03;5052823;28;20237;-63
2023/04/23 04:46:46;;;;;;;1.97;1.53;;;;;;;11.24;100.00;98122.41;5054048;28;20222;-63
2023/04/23 04:49:20;;;;;;;3.87;2.90;;;;;;;11.20;100.00;98114.06;5053078;28;20309;-63
2023/04/23 04:51:48;;;;;;;2.13;1.30;;;;;;;11.21;100.00;98118.31;5054148;28;20246;-63
2023/04/23 04:54:19;;;;;;;3.73;3.00;;;;;;;11.17;100.00;98121.44;5051350;28;20276;-63
2023/04/23 04:56:45;;;;;;;1.40;1.30;;;;;;;11.18;100.00;98120.44;5056294;28;20237;-63
2023/04/23 04:59:15;;;;;;;3.27;2.27;;;;;;;11.19;100.00;98127.31;5053361;28;20684;-63
2023/04/23 05:01:43;;;;;;;5.27;4.20;;;;;;;11.22;100.00;98121.75;5048916;28;20769;-63
2023/04/23 05:04:09;;;;;;;3.10;1.20;;;;;;;11.26;100.00;98132.66;5055317;28;20264;-63
2023/04/23 05:06:36;;;;;;;1.27;1.03;;;;;;;11.29;100.00;98137.56;5051270;28;20218;-63
2023/04/23 05:09:04;;;;;;;2.67;1.10;;;;;;;11.28;100.00;98136.75;5052878;28;20231;-63
2023/04/23 05:11:35;;;;;;;12.00;8.40;;;;;;;11.34;100.00;98133.47;5046961;28;20237;-63
2023/04/23 05:14:03;;;;;;;2.73;2.27;;;;;;;11.37;100.00;98130.53;5053473;28;20254;-63
2023/04/23 05:16:29;;;;;;;5.00;2.87;;;;;;;11.41;100.00;98122.34;5047520;28;20339;-63
2023/04/23 05:18:56;;;;;;;1.77;1.30;;;;;;;11.45;100.00;98134.09;5068675;28;20224;-63
2023/04/23 05:21:23;;;;;;;1.80;1.40;;;;;;;11.42;100.00;98137.06;5049268;28;20259;-63
2023/04/23 05:23:49;;;;;;;2.93;2.60;;;;;;;11.47;100.00;98122.47;5054637;28;20226;-63
2023/04/23 05:26:20;;;;;;;4.17;1.60;;;;;;;11.51;100.00;98126.38;5054127;28;20227;-63
2023/04/23 05:28:46;;;;;;;9.93;8.63;;;;;;;11.59;100.00;98124.72;5048642;28;20218;-63
2023/04/23 05:31:13;;;;;;;5.70;5.20;;;;;;;11.63;100.00;98120.78;5052548;28;20314;-63
2023/04/23 05:33:42;;;;;;;3.63;2.27;;;;;;;11.65;100.00;98116.22;5052794;28;20276;-63
2023/04/23 05:36:09;;;;;;;3.53;2.40;;;;;;;11.74;99.54;98123.03;5051395;28;20219;-63
2023/04/23 05:38:36;;;;;;;3.30;3.00;;;;;;;11.82;98.98;98123.00;5047531;28;20263;-63
2023/04/23 05:41:02;;;;;;;2.13;1.80;;;;;;;11.85;98.65;98116.59;5050637;28;20238;-63
2023/04/23 05:43:30;;;;;;;2.90;2.07;;;;;;;11.87;97.42;98119.84;5052245;28;20223;-63
2023/04/23 05:45:57;;;;;;;1.60;1.43;;;;;;;11.81;95.86;98110.91;5069640;28;20251;-63
2023/04/23 05:48:23;;;;;;;2.07;1.60;;;;;;;11.74;96.02;98109.97;5048037;28;20218;-63
2023/04/23 05:50:50;;;;;;;1.53;1.20;;;;;;;11.70;97.25;98115.69;5055032;28;20707;-63
2023/04/23 05:53:17;;;;;;;1.93;1.00;;;;;;;11.55;98.31;98108.59;5054739;28;20234;-63
2023/04/23 05:55:43;;;;;;;1.50;1.23;;;;;;;11.49;98.53;98106.66;5050277;28;20269;-63
2023/04/23 05:58:10;;;;;;;2.83;1.07;;;;;;;11.47;98.95;98103.38;5066472;28;20277;-63
2023/04/23 06:00:39;;;;;;;2.27;1.10;;;;;;;11.41;99.10;98109.28;5053291;28;20221;-63
2023/04/23 06:03:06;;;;;;;2.00;1.07;;;;;;;11.40;99.88;98105.84;5055312;28;20217;-63
2023/04/23 06:05:32;;;;;;;1.93;1.20;;;;;;;11.48;97.26;98113.66;5053252;28;20273;-63
2023/04/23 06:07:59;;;;;;;3.73;2.90;;;;;;;11.52;97.29;98114.16;5056715;28;20610;-63
2023/04/23 06:10:26;;;;;;;4.57;1.60;;;;;;;11.53;97.93;98115.78;5054236;28;20221;-63
2023/04/23 06:12:54;;;;;;;2.10;1.60;;;;;;;11.60;97.96;98115.91;5055441;28;20237;-63
2023/04/23 06:15:22;;;;;;;2.53;1.13;;;;;;;11.79;96.60;98109.44;5046606;28;20626;-63
2023/04/23 06:17:50;;;;;;;1.47;1.20;;;;;;;11.95;94.67;98121.63;5054641;28;20237;-63
2023/04/23 06:20:17;;;;;;;2.30;1.23;;;;;;;12.08;92.95;98118.47;5055910;28;20219;-63
2023/04/23 06:22:44;;;;;;;2.57;1.60;;;;;;;12.13;92.27;98117.97;5053272;28;20235;-63
2023/04/23 06:25:10;;;;;;;2.93;1.40;;;;;;;12.25;92.32;98116.53;5056224;28;20212;-63
2023/04/23 06:27:37;;;;;;;7.03;4.50;;;;;;;12.41;90.04;98115.63;5052595;28;20231;-63
2023/04/23 06:30:11;;;;;;;1.57;1.40;;;;;;;12.47;88.54;98112.31;5056942;28;20223;-63
2023/04/23 06:32:38;;;;;;;3.03;1.50;;;;;;;12.66;88.73;98115.44;5059735;28;20286;-62
2023/04/23 06:35:07;;;;;;;2.70;1.20;;;;;;;12.74;87.43;98112.72;5056424;28;20280;-62
2023/04/23 06:37:33;;;;;;;1.87;1.20;;;;;;;12.76;87.08;98110.75;5061252;28;20552;-62
2023/04/23 06:40:00;;;;;;;2.00;1.10;;;;;;;12.76;85.34;98107.31;5060058;28;20227;-62
2023/04/23 06:42:26;;;;;;;2.73;1.90;;;;;;;12.60;89.71;98095.19;5050826;28;20210;-62
2023/04/23 06:45:16;;;;;;;3.37;1.70;;;;;;;12.36;88.59;98100.44;5049126;28;20272;-62
2023/04/23 06:47:43;;;;;;;3.23;2.20;;;;;;;12.38;88.25;98093.22;5050199;28;20220;-62
2023/04/23 06:50:11;;;;;;;3.47;1.50;;;;;;;12.35;87.91;98098.00;5057258;28;20211;-62
2023/04/23 06:52:37;;;;;;;13.53;10.70;;;;;;;12.35;88.32;98098.00;5051914;28;20224;-62
2023/04/23 06:55:05;;;;;;;4.43;2.40;;;;;;;12.36;88.88;98089.97;5058667;28;20274;-62
2023/04/23 06:57:31;;;;;;;2.10;1.50;;;;;;;12.33;89.27;98089.50;5051149;28;20211;-62
2023/04/23 06:59:58;;;;;;;3.53;2.13;;;;;;;12.53;87.89;98087.22;5055294;28;20298;-62
2023/04/23 07:02:29;;;;;;;1.88;1.63;;;;;;;12.80;85.08;98085.03;5047677;28;20436;-62
2023/04/23 07:04:55;;;;;;;3.13;1.70;;;;;;;12.91;84.87;98089.00;5055705;28;20232;-61
2023/04/23 07:07:23;;;;;;;1.30;1.10;;;;;;;13.07;82.78;98090.66;5051681;28;20231;-61
2023/04/23 07:09:50;;;;;;;1.60;1.10;;;;;;;13.05;85.00;98080.34;5054073;28;21186;-61
2023/04/23 07:12:16;;;;;;;2.90;1.47;;;;;;;13.14;83.85;98084.50;5056517;28;20726;-61
2023/04/23 07:14:43;;;;;;;2.33;1.27;;;;;;;13.34;82.18;98085.75;5054717;28;20288;-62
2023/04/23 07:17:10;;;;;;;1.70;1.20;;;;;;;13.32;83.05;98077.25;5053049;28;20226;-62
2023/04/23 07:19:36;;;;;;;3.57;1.27;;;;;;;13.47;82.13;98085.94;5049184;28;20226;-61
2023/04/23 07:22:03;;;;;;;1.20;0.90;;;;;;;13.53;80.71;98079.97;5054644;28;20610;-62
2023/04/23 07:24:31;;;;;;;1.27;0.93;;;;;;;13.59;79.39;98081.06;5051965;28;20207;-62
2023/04/23 07:26:58;;;;;;;1.43;1.00;;;;;;;13.64;81.13;98072.63;5055632;28;20599;-62
2023/04/23 07:29:24;;;;;;;2.13;1.00;;;;;;;13.70;80.97;98070.09;5049485;28;20230;-62
2023/04/23 07:31:51;;;;;;;1.47;0.80;;;;;;;13.75;80.90;98080.03;5054619;28;20240;-62
2023/04/23 07:34:19;;;;;;;1.30;0.90;;;;;;;13.79;76.98;98072.59;5048748;28;20221;-62
2023/04/23 07:36:45;;;;;;;3.20;0.90;;;;;;;13.75;77.79;98072.16;5053168;28;20248;-62
2023/04/23 07:39:38;;;;;;;2.10;0.77;;;;;;;13.80;76.36;98075.03;5050830;28;20223;-62
2023/04/23 07:42:05;;;;;;;1.97;1.10;;;;;;;13.77;77.84;98066.75;5055599;28;20317;-61
2023/04/23 07:44:32;;;;;;;1.23;0.97;;;;;;;13.70;79.79;98061.41;5049784;28;20229;-61
2023/04/23 07:46:59;;;;;;;4.10;1.00;;;;;;;13.87;80.71;98061.97;5054664;28;20233;-63
2023/04/23 07:49:25;;;;;;;1.73;0.97;;;;;;;13.87;77.08;98060.19;5065910;28;20794;-62
2023/04/23 07:51:52;;;;;;;1.23;1.10;;;;;;;13.99;78.39;98057.88;5054640;28;20225;-62
2023/04/23 07:54:19;;;;;;;1.00;0.83;;;;;;;14.17;77.81;98064.50;5048092;28;20225;-62
2023/04/23 07:56:47;;;;;;;0.87;0.80;;;;;;;14.01;77.27;98055.06;5052759;28;20258;-61
2023/04/23 07:59:19;;;;;;;1.53;0.90;;;;;;;14.11;78.46;98060.84;5059328;28;20626;-61
2023/04/23 08:01:45;;;;;;;1.73;0.97;;;;;;;14.16;76.73;98050.59;5061114;28;20745;-61
2023/04/23 08:04:37;;;;;;;3.57;1.77;;;;;;;14.13;76.67;98045.72;5050721;28;20687;-61
2023/04/23 08:07:03;;;;;;;3.00;1.43;;;;;;;14.21;76.04;98049.22;5055202;28;20573;-61
2023/04/23 08:09:30;;;;;;;2.43;1.30;;;;;;;14.34;77.13;98045.88;5055191;28;20584;-62
2023/04/23 08:11:58;;;;;;;1.67;1.30;;;;;;;14.44;77.17;98039.28;5054150;28;20235;-61
2023/04/23 08:14:24;;;;;;;1.97;1.23;;;;;;;14.66;76.08;98035.81;5051133;28;20710;-61
2023/04/23 08:16:51;;;;;;;1.90;1.23;;;;;;;14.93;74.55;98042.06;5057014;28;20242;-61
2023/04/23 08:19:19;;;;;;;1.30;1.20;;;;;;;15.15;71.72;98032.28;5050345;28;20216;-61
2023/04/23 08:21:46;;;;;;;1.17;0.90;;;;;;;15.28;68.09;98028.91;5053019;28;20720;-61
2023/04/23 08:24:37;;;;;;;1.97;1.23;;;;;;;15.26;69.31;98022.22;5049500;28;20553;-61
2023/04/23 08:27:05;;;;;;;3.77;1.33;;;;;;;15.29;69.94;98027.91;5054208;28;20224;-61
2023/04/23 08:29:32;;;;;;;1.37;1.03;;;;;;;15.71;68.55;98025.19;5047262;28;20267;-61
2023/04/23 08:31:58;;;;;;;1.87;1.20;;;;;;;15.95;65.91;98025.66;5054576;28;20227;-61
2023/04/23 08:34:25;;;;;;;4.47;1.40;;;;;;;16.06;63.11;98016.38;5052181;28;20227;-61
2023/04/23 08:36:52;;;;;;;2.27;1.30;;;;;;;16.02;64.22;98013.31;5055222;28;20705;-61
2023/04/23 08:39:19;;;;;;;2.33;1.30;;;;;;;16.26;65.74;98023.47;5049884;28;20219;-61
2023/04/23 08:41:54;;;;;;;2.07;1.10;;;;;;;16.25;65.82;98012.13;5053705;28;20234;-61
2023/04/23 08:44:23;;;;;;;3.33;1.60;;;;;;;16.82;62.36;98017.72;5052010;28;20323;-61
2023/04/23 08:46:52;;;;;;;1.27;1.17;;;;;;;17.05;62.72;98007.75;5050282;28;20247;-61
2023/04/23 08:49:19;;;;;;;1.60;1.10;;;;;;;17.56;60.24;98011.38;5050113;28;20223;-61
2023/04/23 08:51:49;;;;;;;1.13;1.03;;;;;;;18.00;59.13;98009.72;5053020;28;20219;-61
2023/04/23 08:54:22;;;;;;;1.63;1.10;;;;;;;18.01;58.45;98010.56;5054453;28;20349;-61
2023/04/23 08:56:50;;;;;;;1.27;1.10;;;;;;;17.94;56.04;98018.47;5053326;28;20233;-61
2023/04/23 08:59:21;;;;;;;2.43;1.13;;;;;;;17.51;59.52;98012.03;5049693;28;20695;-61
2023/04/23 09:01:50;;;;;;;2.40;1.10;;;;;;;17.60;59.50;98009.16;5052369;28;20322;-61
2023/04/23 09:04:19;;;;;;;4.07;1.50;;;;;;;17.74;54.08;98012.50;5048232;28;20227;-61
2023/04/23 09:06:46;;;;;;;2.37;1.10;;;;;;;17.70;53.18;98009.50;5053062;28;20322;-61
2023/04/23 09:09:22;;;;;;;2.20;0.70;;;;;;;17.34;55.81;97995.91;5048760;28;20316;-61
2023/04/23 09:11:49;;;;;;;5.17;1.00;;;;;;;16.89;57.96;97990.53;5053671;28;20709;-61
2023/04/23 09:14:21;;;;;;;1.67;1.00;;;;;;;17.13;57.30;97998.81;5050521;28;20218;-61
2023/04/23 09:16:48;;;;;;;2.90;1.10;;;;;;;16.86;56.33;97986.50;5053101;28;20289;-61
2023/04/23 09:19:20;;;;;;;1.80;1.03;;;;;;;16.94;54.03;97980.19;5048587;28;20288;-61
2023/04/23 09:21:47;;;;;;;1.63;1.50;;;;;;;17.10;55.73;97977.13;5053623;28;20232;-61
2023/04/23 09:24:22;;;;;;;1.50;1.00;;;;;;;17.33;53.63;97975.81;5057096;28;20262;-61
2023/04/23 09:26:50;;;;;;;2.10;1.10;;;;;;;17.32;56.57;97974.19;5056435;28;20227;-61
2023/04/23 09:29:22;;;;;;;2.87;1.27;;;;;;;17.57;55.64;97973.44;5047443;28;21074;-61
2023/04/23 09:31:50;;;;;;;2.10;1.10;;;;;;;17.68;55.59;97979.88;5051787;28;20231;-62
2023/04/23 09:34:21;;;;;;;1.27;0.90;;;;;;;17.46;54.99;97977.56;5052429;28;20234;-62
2023/04/23 09:36:50;;;;;;;1.63;0.90;;;;;;;17.00;53.63;97975.94;5054542;28;20281;-62
2023/04/23 09:39:21;;;;;;;2.20;0.97;;;;;;;17.45;53.24;97975.16;5054907;28;20215;-62
2023/04/23 09:41:47;;;;;;;2.43;1.00;;;;;;;18.09;52.14;97967.22;5058549;28;20248;-62
2023/04/23 09:44:22;;;;;;;2.67;1.10;;;;;;;17.85;52.43;97964.31;5053865;28;20702;-62
2023/04/23 09:46:49;;;;;;;1.80;0.93;;;;;;;17.99;53.30;97962.41;5059784;28;20328;-62
2023/04/23 09:49:20;;;;;;;2.23;1.10;;;;;;;18.28;52.67;97954.84;5053818;28;20236;-62
2023/04/23 09:51:50;;;;;;;3.27;1.03;;;;;;;18.44;50.68;97956.94;5056187;28;20235;-62
2023/04/23 09:54:21;;;;;;;1.80;1.10;;;;;;;18.20;51.86;97949.84;5049993;28;20228;-62
2023/04/23 09:56:50;;;;;;;4.67;1.00;;;;;;;18.13;51.66;97952.56;5057345;28;20945;-62
2023/04/23 09:59:20;;;;;;;2.60;1.07;;;;;;;17.93;54.01;97956.13;5055178;28;20220;-62
2023/04/23 10:01:46;;;;;;;1.50;0.97;;;;;;;18.25;51.41;97947.38;5056763;28;20327;-62
2023/04/23 10:04:22;;;;;;;1.17;1.00;;;;;;;18.21;51.30;97947.00;5053788;28;20228;-62
2023/04/23 10:06:53;;;;;;;1.70;0.90;;;;;;;18.21;50.96;97930.34;5056143;28;20230;-62
2023/04/23 10:09:23;;;;;;;1.63;1.13;;;;;;;18.32;52.38;97934.91;5056594;28;20231;-62
2023/04/23 10:11:51;;;;;;;1.70;1.00;;;;;;;18.17;52.96;97934.44;5058934;28;20240;-62
2023/04/23 10:14:19;;;;;;;1.60;1.03;;;;;;;17.95;53.04;97934.81;5054364;28;20236;-62
2023/04/23 10:16:47;;;;;;;4.63;1.50;;;;;;;18.54;51.57;97937.97;5057689;28;20231;-62
2023/04/23 10:19:23;;;;;;;3.37;1.00;;;;;;;18.46;51.27;97932.97;5053553;28;20239;-62
2023/04/23 10:21:54;;;;;;;3.60;1.43;;;;;;;18.31;51.75;97927.22;5057280;28;20236;-62
2023/04/23 10:24:23;;;;;;;1.73;0.83;;;;;;;18.38;52.20;97935.88;5060132;28;20225;-62
2023/04/23 10:26:57;;;;;;;2.40;1.00;;;;;;;18.59;51.79;97935.44;5054923;28;20228;-62
2023/04/23 10:29:28;;;;;;;1.10;0.93;;;;;;;18.57;51.20;97934.06;5051763;28;20209;-62
2023/04/23 10:31:56;;;;;;;2.57;1.00;;;;;;;18.89;49.29;97931.25;5055408;28;20645;-62
2023/04/23 10:34:26;;;;;;;1.47;0.80;;;;;;;18.69;49.46;97920.91;5053448;28;20221;-62
2023/04/23 10:36:53;;;;;;;1.13;0.80;;;;;;;18.31;48.89;97922.72;5056629;28;20711;-62
2023/04/23 10:39:24;;;;;;;1.00;0.90;;;;;;;18.63;50.58;97914.66;5052917;28;20229;-62
2023/04/23 10:41:52;;;;;;;2.37;1.10;;;;;;;18.43;51.64;97913.03;5058725;28;20737;-62
2023/04/23 10:44:20;;;;;;;1.30;0.87;;;;;;;18.60;50.88;97901.91;5051003;28;20260;-62
2023/04/23 10:46:55;;;;;;;2.27;0.80;;;;;;;18.78;50.54;97892.34;5055123;28;20223;-62
2023/04/23 10:49:25;;;;;;;2.40;0.93;;;;;;;18.55;49.92;97893.81;5052167;28;20221;-62
2023/04/23 10:51:59;;;;;;;1.77;1.17;;;;;;;18.64;50.86;97896.97;5053416;28;20232;-62
2023/04/23 10:54:30;;;;;;;1.47;1.00;;;;;;;17.91;51.99;97889.53;5045579;28;20295;-61
2023/04/23 10:57:00;;;;;;;1.60;0.80;;;;;;;18.07;52.02;97890.84;5050460;28;20243;-62
2023/04/23 10:59:29;;;;;;;1.23;0.80;;;;;;;18.24;54.30;97879.72;5053966;28;20227;-62
2023/04/23 11:01:57;;;;;;;1.40;0.87;;;;;;;18.47;52.35;97871.16;5033449;28;20254;-62
2023/04/23 11:04:27;;;;;;;2.33;0.83;;;;;;;18.72;50.85;97867.59;5053550;28;20236;-62
2023/04/23 11:06:56;;;;;;;1.57;0.73;;;;;;;18.70;53.05;97865.19;5050501;28;20243;-62
2023/04/23 11:09:30;;;;;;;1.30;0.83;;;;;;;18.94;51.11;97862.66;5055205;28;21498;-62
2023/04/23 11:11:57;;;;;;;1.50;0.90;;;;;;;19.01;51.90;97860.75;5051995;28;20427;-62
2023/04/23 11:14:34;;;;;;;0.80;0.70;;;;;;;19.05;51.42;97847.88;5056904;28;20742;-62
2023/04/23 11:17:01;;;;;;;1.20;0.60;;;;;;;18.84;49.45;97847.31;5053582;28;20246;-62
2023/04/23 11:19:30;;;;;;;0.93;0.80;;;;;;;18.70;48.01;97836.09;5057122;28;20231;-62
2023/04/23 11:22:01;;;;;;;0.70;0.70;;;;;;;18.86;48.79;97841.81;5055583;28;20277;-62
2023/04/23 11:24:29;;;;;;;1.37;0.70;;;;;;;19.00;51.24;97832.69;5057494;28;20218;-62
2023/04/23 11:26:56;;;;;;;3.07;0.90;;;;;;;19.13;50.52;97828.22;5051043;28;20224;-62
2023/04/23 11:29:24;;;;;;;0.80;0.80;;;;;;;19.29;47.32;97829.44;5056984;28;20220;-62
2023/04/23 11:31:51;;;;;;;0.80;0.50;;;;;;;19.50;46.94;97829.91;5053519;28;20679;-62
2023/04/23 11:34:19;;;;;;;1.80;0.70;;;;;;;19.33;47.45;97820.78;5056549;28;20304;-63
2023/04/23 11:36:49;;;;;;;0.57;0.50;;;;;;;19.72;47.67;97808.97;5053873;28;20221;-62
2023/04/23 11:39:19;;;;;;;1.60;0.70;;;;;;;19.72;47.46;97815.06;5054552;28;20313;-62